TAF KOPF
AMD KOPF 082058Z 0821/0918 20008KT P6SM FEW040 FM090100 VRB03KT P6SM FEW030 FM091600 10006KT P6SM FEW030=
METAR KOPF
WC KOPF
WS KOPF
WV KOPF